Flight Track Log - Related Links

Times and Time Zones

All times are in EDT time to prevent confusion due to time zone crossing. See the SWA315 flight status page for this flight to view local times or setup timezone preferences in your user account.


Time Position Orientation Groundspeed Altitude Reporting Facility
EDT Latitude Longitude Course Direction KTS MPH feet Rate Location/Type
Sat 12:40:37 AM 37.7303 -122.2550 311° West 171 197 1,800  Level Oakland Center
Sat 12:41:38 AM 37.7675 -122.3086 311° West 198 228 3,900 2,607 Climbing Oakland Center
Sat 12:42:39 AM 37.7333 -122.3833 240° Southwest 254 292 7,100 3,421 Climbing Northern Cal TRACON
Sat 12:43:39 AM 37.6667 -122.4000 191° South 299 344 10,800 3,620 Climbing Northern Cal TRACON
Sat 12:44:40 AM 37.5803 -122.4208 191° South 298 343 14,400 3,492 Climbing Oakland Center
Sat 12:45:41 AM 37.4992 -122.3531 146° Southeast 345 397 17,900 2,262 Climbing Oakland Center
Sat 12:46:42 AM 37.4272 -122.2458 130° Southeast 384 442 19,000 1,525 Climbing Oakland Center
Sat 12:47:43 AM 37.3492 -122.1286 130° Southeast 423 487 21,000 2,262 Climbing Oakland Center
Sat 12:48:44 AM 37.2669 -122.0067 130° Southeast 448 516 23,600 2,459 Climbing Oakland Center
Sat 12:49:45 AM 37.1800 -121.8775 130° Southeast 474 545 26,000 2,628 Climbing Oakland Center
Sat 12:50:45 AM 37.0922 -121.7431 129° Southeast 493 567 28,900 2,975 Climbing Oakland Center
Sat 12:51:46 AM 36.9844 -121.5903 131° Southeast 491 565 32,000 2,705 Climbing Oakland Center
Sat 12:52:47 AM 36.8964 -121.4617 131° Southeast 487 560 34,400 2,213 Climbing Oakland Center
Sat 12:53:48 AM 36.8100 -121.3325 130° Southeast 486 559 36,500 1,967 Climbing Oakland Center
Sat 12:54:49 AM 36.7228 -121.2072 131° Southeast 483 556 38,400 1,785 Climbing Oakland Center
Sat 12:55:49 AM 36.6356 -121.0828 131° Southeast 479 551 40,100 1,289 Climbing Oakland Center
Sat 12:56:50 AM 36.5486 -120.9547 130° Southeast 474 545 41,000 443 Climbing Oakland Center
Sat 12:57:51 AM 36.4606 -120.8269 131° Southeast 488 562 41,000  Level Oakland Center
Sat 12:58:52 AM 36.3750 -120.7014 130° Southeast 492 566 41,000  Level Oakland Center
Sat 12:59:53 AM 36.2806 -120.5697 132° Southeast 493 567 41,000  Level Oakland Center
Sat 01:00:53 AM 36.1900 -120.4408 131° Southeast 487 560 41,000  Level Oakland Center
Sat 01:01:54 AM 36.0944 -120.3047 131° Southeast 490 564 41,000  Level Oakland Center
Sat 01:02:55 AM 36.0086 -120.1828 131° Southeast 485 558 41,000  Level Oakland Center
Sat 01:03:56 AM 35.9256 -120.0697 132° Southeast 478 550 41,000  Level Oakland Center
Sat 01:04:56 AM 35.8369 -119.9436 131° Southeast 484 557 41,000  Level Oakland Center
Sat 01:05:57 AM 35.7664 -119.8125 124° Southeast 460 529 41,000  Level Oakland Center
Sat 01:06:58 AM 35.7089 -119.6694 116° Southeast 463 533 41,000  Level Oakland Center
Sat 01:07:59 AM 35.6528 -119.5278 116° Southeast 461 531 41,000  Level Oakland Center
Sat 01:09:00 AM 35.5953 -119.3867 117° Southeast 461 531 41,000  Level Oakland Center
Sat 01:09:55 AM 35.5442 -119.2586 116° Southeast 460 529 41,000  Level Los Angeles Center
Sat 01:11:09 AM 35.4872 -119.1197 117° Southeast 459 528 41,000  Level Los Angeles Center
Sat 01:12:10 AM 35.4083 -118.9242 116° Southeast 458 527 41,000  Level Los Angeles Center
Sat 01:13:12 AM 35.3511 -118.7839 117° Southeast 460 529 41,000  Level Los Angeles Center
Sat 01:14:13 AM 35.2928 -118.6442 117° Southeast 463 533 41,000  Level Los Angeles Center
Sat 01:15:14 AM 35.2353 -118.5042 117° Southeast 462 532 41,000  Level Los Angeles Center
Sat 01:16:15 AM 35.1778 -118.3647 117° Southeast 461 531 41,000  Level Los Angeles Center
Sat 01:17:17 AM 35.1197 -118.2256 117° Southeast 460 529 41,000 -585 Level Los Angeles Center
Sat 01:18:18 AM 35.0606 -118.0869 118° Southeast 463 533 39,800 -1,180 Descending Los Angeles Center
Sat 01:19:19 AM 35.0017 -117.9461 117° Southeast 469 540 38,600 -1,131 Descending Los Angeles Center
Sat 01:20:20 AM 34.9272 -117.7714 117° Southeast 488 562 37,500 -976 Descending Los Angeles Center
Sat 01:21:22 AM 34.8653 -117.6278 118° Southeast 489 563 36,600 -927 Descending Los Angeles Center
Sat 01:22:23 AM 34.8042 -117.4831 117° Southeast 489 563 35,600 -787 Descending Los Angeles Center
Sat 01:23:24 AM 34.7422 -117.3378 117° Southeast 491 565 35,000 -295 Descending Los Angeles Center
Sat 01:24:25 AM 34.6803 -117.1928 117° Southeast 491 565 35,000  Level Los Angeles Center
Sat 01:25:27 AM 34.6183 -117.0481 117° Southeast 487 560 35,000  Level Los Angeles Center
Sat 01:26:28 AM 34.5542 -116.9028 118° Southeast 490 564 35,000  Level Los Angeles Center
Sat 01:27:29 AM 34.4789 -116.7269 117° Southeast 494 568 35,000  Level Los Angeles Center
Sat 01:28:30 AM 34.4144 -116.5828 118° Southeast 492 566 35,000  Level Los Angeles Center
Sat 01:29:31 AM 34.3528 -116.4356 117° Southeast 492 566 35,000  Level Los Angeles Center
Sat 01:30:33 AM 34.2894 -116.2917 118° Southeast 487 560 35,000  Level Los Angeles Center
Sat 01:31:34 AM 34.2250 -116.1478 118° Southeast 487 560 35,000 -443 Level Los Angeles Center
Sat 01:32:35 AM 34.1611 -116.0047 118° Southeast 486 559 34,100 -934 Descending Los Angeles Center
Sat 01:33:36 AM 34.0936 -115.8542 118° Southeast 481 554 33,100 -541 Descending Los Angeles Center
Sat 01:34:37 AM 34.0281 -115.7106 119° Southeast 487 560 33,000 -49 Descending Los Angeles Center
Sat 01:35:39 AM 33.9642 -115.5686 118° Southeast 484 557 33,000  Level Los Angeles Center
Sat 01:36:40 AM 33.8997 -115.4267 119° Southeast 483 556 33,000 -197 Level Los Angeles Center
Sat 01:37:41 AM 33.8353 -115.2847 119° Southeast 483 556 32,600 -738 Descending Los Angeles Center
Sat 01:38:42 AM 33.7703 -115.1447 119° Southeast 480 552 31,500 -787 Descending Los Angeles Center
Sat 01:39:43 AM 33.7083 -115.0078 119° Southeast 472 543 31,000 -246 Descending Los Angeles Center
Sat 01:40:44 AM 33.6461 -114.8736 119° Southeast 463 533 31,000  Level Los Angeles Center
Sat 01:41:45 AM 33.5819 -114.7072 115° Southeast 459 528 31,000  Level Los Angeles Center
Sat 01:42:38 AM 33.5669 -114.6061 100° East 446 513 31,000  Level Albuquerque Center
Sat 01:43:39 AM 33.5383 -114.4617 103° East 445 512 31,000 -1,131 Level Albuquerque Center
Sat 01:44:40 AM 33.5064 -114.2917 103° East 438 504 28,700 -2,380 Descending Albuquerque Center
Sat 01:45:40 AM 33.4783 -114.1564 104° East 424 488 26,200 -1,835 Descending Albuquerque Center
Sat 01:46:41 AM 33.4519 -114.0233 103° East 415 478 25,000 -595 Descending Albuquerque Center
Sat 01:47:41 AM 33.4258 -113.8892 103° East 414 476 25,000  Level Albuquerque Center
Sat 01:48:42 AM 33.3986 -113.7567 104° East 412 474 25,000 -50 Level Albuquerque Center
Sat 01:49:42 AM 33.3703 -113.6233 104° East 413 475 24,900 -1,289 Descending Albuquerque Center
Sat 01:50:43 AM 33.3444 -113.4906 103° East 412 474 22,400 -1,475 Descending Albuquerque Center
Sat 01:51:44 AM 33.3172 -113.3625 104° East 402 463 21,900 -1,289 Descending Albuquerque Center
Sat 01:52:44 AM 33.2914 -113.2394 104° East 388 447 19,800 -2,182 Descending Albuquerque Center
Sat 01:53:45 AM 33.2742 -113.1214 100° East 367 422 17,500 -1,388 Descending Albuquerque Center
Sat 01:54:45 AM 33.2756 -113.0053 89° East 348 400 17,000 -347 Descending Albuquerque Center
Sat 01:55:46 AM 33.2789 -112.8928 88° East 341 392 16,800 -496 Descending Albuquerque Center
Sat 01:56:46 AM 33.2811 -112.7856 89° East 330 380 16,000 -397 Descending Albuquerque Center
Sat 01:57:47 AM 33.2831 -112.6836 89° East 315 362 16,000 -639 Level Albuquerque Center
Sat 01:58:48 AM 33.2856 -112.5828 88° East 301 346 14,700 -1,438 Descending Albuquerque Center
Sat 01:59:48 AM 33.2889 -112.4883 88° East 287 330 13,100 -1,587 Descending Albuquerque Center
Sat 02:00:49 AM 33.2911 -112.3956 88° East 282 325 11,500 -1,041 Descending Albuquerque Center
Sat 02:01:49 AM 33.2953 -112.3031 87° East 281 323 11,000 -893 Descending Albuquerque Center
Sat 02:02:50 AM 33.3019 -112.2094 85° East 284 327 9,700 -942 Descending Albuquerque Center
Sat 02:03:50 AM 33.3094 -112.1197 84° East 276 318 9,100 -694 Descending Albuquerque Center
Sat 02:04:51 AM 33.3253 -112.0406 77° East 249 287 8,300 -984 Descending Albuquerque Center
Sat 02:05:52 AM 33.3439 -111.9636 74° East 243 280 7,100 -793 Descending Albuquerque Center
Sat 02:06:52 AM 33.3458 -111.8889 88° East 223 257 6,700 -744 Descending Albuquerque Center
Sat 02:07:53 AM 33.3594 -111.8322 74° East 202 232 5,600 -1,140 Descending Albuquerque Center
Sat 02:08:53 AM 33.4042 -111.8447 347° North 164 189 4,400 -1,240 Descending Albuquerque Center
Sat 02:09:54 AM 33.4258 -111.8883 301° West 153 176 3,100 -1,190 Descending Albuquerque Center
Sat 02:10:54 AM 33.4325 -111.9336 280° West 138 159 2,000 -793 Descending Albuquerque Center
Sat 02:11:55 AM 33.4311 -111.9772 268° West 131 151 1,500 -446 Descending Albuquerque Center
Sat 02:12:55 AM 33.4297 -112.0236 268° West 134 154 1,100 -400 Descending Albuquerque Center

Login

Don't have an account? Register now (free) for customized features, flight alerts, and more!